sensor_id;sensor_type;location;lat;lon;timestamp;temperature;humidity
70074;DHT22;57445;51.058;3.698;2022-10-17T00:01:33;16.80;99.50
70074;DHT22;57445;51.058;3.698;2022-10-17T00:04:01;16.90;99.50
70074;DHT22;57445;51.058;3.698;2022-10-17T00:06:29;16.80;99.50
70074;DHT22;57445;51.058;3.698;2022-10-17T00:08:57;16.70;99.70
70074;DHT22;57445;51.058;3.698;2022-10-17T00:11:30;16.70;99.80
70074;DHT22;57445;51.058;3.698;2022-10-17T00:14:02;16.90;99.70
70074;DHT22;57445;51.058;3.698;2022-10-17T00:16:32;16.80;99.60
70074;DHT22;57445;51.058;3.698;2022-10-17T00:19:02;16.80;99.70
70074;DHT22;57445;51.058;3.698;2022-10-17T00:21:30;16.90;99.60
70074;DHT22;57445;51.058;3.698;2022-10-17T00:24:05;16.70;99.80
70074;DHT22;57445;51.058;3.698;2022-10-17T00:26:37;16.80;99.80
70074;DHT22;57445;51.058;3.698;2022-10-17T00:29:09;16.90;99.80
70074;DHT22;57445;51.058;3.698;2022-10-17T00:31:37;16.70;99.80
70074;DHT22;57445;51.058;3.698;2022-10-17T00:34:09;16.60;99.90
70074;DHT22;57445;51.058;3.698;2022-10-17T00:36:41;16.50;99.90
70074;DHT22;57445;51.058;3.698;2022-10-17T00:39:14;16.80;99.90
70074;DHT22;57445;51.058;3.698;2022-10-17T00:41:47;17.00;99.90
70074;DHT22;57445;51.058;3.698;2022-10-17T00:44:58;17.00;99.80
70074;DHT22;57445;51.058;3.698;2022-10-17T00:47:31;16.80;99.90
70074;DHT22;57445;51.058;3.698;2022-10-17T00:50:00;16.90;99.90
70074;DHT22;57445;51.058;3.698;2022-10-17T00:52:28;16.90;99.90
70074;DHT22;57445;51.058;3.698;2022-10-17T00:55:07;17.10;99.90
70074;DHT22;57445;51.058;3.698;2022-10-17T00:57:37;16.90;99.90
70074;DHT22;57445;51.058;3.698;2022-10-17T01:00:09;17.00;99.90
70074;DHT22;57445;51.058;3.698;2022-10-17T01:02:42;17.10;99.90
70074;DHT22;57445;51.058;3.698;2022-10-17T01:05:15;17.10;99.90
70074;DHT22;57445;51.058;3.698;2022-10-17T01:07:44;17.00;99.90
70074;DHT22;57445;51.058;3.698;2022-10-17T01:10:19;16.90;99.90
70074;DHT22;57445;51.058;3.698;2022-10-17T01:12:59;17.10;99.90
70074;DHT22;57445;51.058;3.698;2022-10-17T01:15:38;17.20;99.90
70074;DHT22;57445;51.058;3.698;2022-10-17T01:18:18;17.10;99.80
70074;DHT22;57445;51.058;3.698;2022-10-17T01:21:29;17.10;99.90
70074;DHT22;57445;51.058;3.698;2022-10-17T01:33:08;17.00;99.90
70074;DHT22;57445;51.058;3.698;2022-10-17T01:35:40;17.10;99.90
70074;DHT22;57445;51.058;3.698;2022-10-17T01:38:10;17.50;99.40
70074;DHT22;57445;51.058;3.698;2022-10-17T01:40:43;17.70;98.90
70074;DHT22;57445;51.058;3.698;2022-10-17T01:43:15;17.50;99.20
70074;DHT22;57445;51.058;3.698;2022-10-17T01:45:50;17.50;99.50
70074;DHT22;57445;51.058;3.698;2022-10-17T01:48:26;17.50;99.20
70074;DHT22;57445;51.058;3.698;2022-10-17T01:51:00;17.30;99.80
70074;DHT22;57445;51.058;3.698;2022-10-17T01:53:40;17.30;99.70
70074;DHT22;57445;51.058;3.698;2022-10-17T01:56:08;17.50;99.60
70074;DHT22;57445;51.058;3.698;2022-10-17T01:58:46;17.60;99.20
70074;DHT22;57445;51.058;3.698;2022-10-17T02:01:20;17.50;99.40
70074;DHT22;57445;51.058;3.698;2022-10-17T02:03:55;17.50;99.40
70074;DHT22;57445;51.058;3.698;2022-10-17T02:06:24;17.40;99.60
70074;DHT22;57445;51.058;3.698;2022-10-17T02:08:58;17.20;99.90
70074;DHT22;57445;51.058;3.698;2022-10-17T02:11:30;17.20;99.90
70074;DHT22;57445;51.058;3.698;2022-10-17T02:14:13;17.40;99.90
70074;DHT22;57445;51.058;3.698;2022-10-17T02:16:52;17.50;99.50
70074;DHT22;57445;51.058;3.698;2022-10-17T02:19:34;17.70;99.20
70074;DHT22;57445;51.058;3.698;2022-10-17T02:22:17;17.70;99.10
70074;DHT22;57445;51.058;3.698;2022-10-17T02:24:49;17.60;99.40
70074;DHT22;57445;51.058;3.698;2022-10-17T02:27:32;17.50;99.30
70074;DHT22;57445;51.058;3.698;2022-10-17T02:30:03;17.60;99.20
70074;DHT22;57445;51.058;3.698;2022-10-17T02:32:35;17.70;99.00
70074;DHT22;57445;51.058;3.698;2022-10-17T02:35:08;17.80;98.80
70074;DHT22;57445;51.058;3.698;2022-10-17T02:37:42;17.70;98.90
70074;DHT22;57445;51.058;3.698;2022-10-17T02:40:11;17.50;99.60
70074;DHT22;57445;51.058;3.698;2022-10-17T02:42:43;17.50;99.60
70074;DHT22;57445;51.058;3.698;2022-10-17T02:45:16;17.60;99.50
70074;DHT22;57445;51.058;3.698;2022-10-17T02:47:50;17.60;99.30
70074;DHT22;57445;51.058;3.698;2022-10-17T02:50:32;17.40;99.60
70074;DHT22;57445;51.058;3.698;2022-10-17T02:53:05;17.50;99.70
70074;DHT22;57445;51.058;3.698;2022-10-17T02:55:40;17.60;99.50
70074;DHT22;57445;51.058;3.698;2022-10-17T02:58:13;17.60;99.40
70074;DHT22;57445;51.058;3.698;2022-10-17T03:00:44;17.50;99.80
70074;DHT22;57445;51.058;3.698;2022-10-17T03:03:21;17.20;99.90
70074;DHT22;57445;51.058;3.698;2022-10-17T03:05:55;17.00;99.90
70074;DHT22;57445;51.058;3.698;2022-10-17T03:08:27;16.90;99.90
70074;DHT22;57445;51.058;3.698;2022-10-17T03:11:00;16.70;99.90
70074;DHT22;57445;51.058;3.698;2022-10-17T03:13:28;16.70;99.90
70074;DHT22;57445;51.058;3.698;2022-10-17T03:15:56;16.80;99.90
70074;DHT22;57445;51.058;3.698;2022-10-17T03:18:29;16.70;99.90
70074;DHT22;57445;51.058;3.698;2022-10-17T03:20:58;16.70;99.90
70074;DHT22;57445;51.058;3.698;2022-10-17T03:23:25;16.60;99.90
70074;DHT22;57445;51.058;3.698;2022-10-17T03:25:53;16.60;99.90
70074;DHT22;57445;51.058;3.698;2022-10-17T03:28:22;17.00;99.90
70074;DHT22;57445;51.058;3.698;2022-10-17T03:30:49;17.00;99.90
70074;DHT22;57445;51.058;3.698;2022-10-17T03:33:17;17.10;99.90
70074;DHT22;57445;51.058;3.698;2022-10-17T03:35:49;17.20;99.90
70074;DHT22;57445;51.058;3.698;2022-10-17T03:38:22;17.20;99.90
70074;DHT22;57445;51.058;3.698;2022-10-17T03:40:54;17.20;99.90
70074;DHT22;57445;51.058;3.698;2022-10-17T03:43:26;17.20;99.90
70074;DHT22;57445;51.058;3.698;2022-10-17T03:45:59;17.30;99.90
70074;DHT22;57445;51.058;3.698;2022-10-17T03:48:28;17.20;99.90
70074;DHT22;57445;51.058;3.698;2022-10-17T03:51:04;17.30;99.90
70074;DHT22;57445;51.058;3.698;2022-10-17T03:53:33;17.30;99.90
70074;DHT22;57445;51.058;3.698;2022-10-17T03:56:08;17.20;99.90
70074;DHT22;57445;51.058;3.698;2022-10-17T03:58:41;17.20;99.90
70074;DHT22;57445;51.058;3.698;2022-10-17T04:01:11;17.30;99.90
70074;DHT22;57445;51.058;3.698;2022-10-17T04:03:47;17.40;99.90
70074;DHT22;57445;51.058;3.698;2022-10-17T04:06:15;17.30;99.90
70074;DHT22;57445;51.058;3.698;2022-10-17T04:08:44;17.50;99.90
70074;DHT22;57445;51.058;3.698;2022-10-17T04:11:14;17.50;99.90
70074;DHT22;57445;51.058;3.698;2022-10-17T04:13:43;17.50;99.90
70074;DHT22;57445;51.058;3.698;2022-10-17T04:16:13;17.60;99.90
70074;DHT22;57445;51.058;3.698;2022-10-17T04:18:45;17.80;99.80
70074;DHT22;57445;51.058;3.698;2022-10-17T04:21:17;17.90;99.50
70074;DHT22;57445;51.058;3.698;2022-10-17T04:23:46;18.10;99.30
70074;DHT22;57445;51.058;3.698;2022-10-17T04:26:14;18.00;99.70
70074;DHT22;57445;51.058;3.698;2022-10-17T04:28:46;17.80;99.50
70074;DHT22;57445;51.058;3.698;2022-10-17T04:31:18;17.60;99.90
70074;DHT22;57445;51.058;3.698;2022-10-17T04:33:46;17.70;99.90
70074;DHT22;57445;51.058;3.698;2022-10-17T04:36:19;17.80;99.90
70074;DHT22;57445;51.058;3.698;2022-10-17T04:38:54;18.10;99.60
70074;DHT22;57445;51.058;3.698;2022-10-17T04:41:22;18.30;99.10
70074;DHT22;57445;51.058;3.698;2022-10-17T04:43:49;18.10;99.30
70074;DHT22;57445;51.058;3.698;2022-10-17T04:46:17;17.80;99.80
70074;DHT22;57445;51.058;3.698;2022-10-17T04:48:44;17.70;99.90
70074;DHT22;57445;51.058;3.698;2022-10-17T04:51:17;17.80;99.90
70074;DHT22;57445;51.058;3.698;2022-10-17T04:53:45;17.70;99.90
70074;DHT22;57445;51.058;3.698;2022-10-17T04:56:21;17.70;99.90
70074;DHT22;57445;51.058;3.698;2022-10-17T04:58:50;17.70;99.90
70074;DHT22;57445;51.058;3.698;2022-10-17T05:01:19;17.70;99.90
70074;DHT22;57445;51.058;3.698;2022-10-17T05:03:52;17.90;99.90
70074;DHT22;57445;51.058;3.698;2022-10-17T05:06:22;18.00;99.90
70074;DHT22;57445;51.058;3.698;2022-10-17T05:08:50;18.10;99.80
70074;DHT22;57445;51.058;3.698;2022-10-17T05:11:25;18.20;99.50
70074;DHT22;57445;51.058;3.698;2022-10-17T05:13:59;18.00;99.80
70074;DHT22;57445;51.058;3.698;2022-10-17T05:16:28;17.90;99.90
70074;DHT22;57445;51.058;3.698;2022-10-17T05:19:00;17.90;99.90
70074;DHT22;57445;51.058;3.698;2022-10-17T05:21:29;17.80;99.90
70074;DHT22;57445;51.058;3.698;2022-10-17T05:24:03;17.80;99.90
70074;DHT22;57445;51.058;3.698;2022-10-17T05:26:32;17.70;99.90
70074;DHT22;57445;51.058;3.698;2022-10-17T05:29:00;17.80;99.90
70074;DHT22;57445;51.058;3.698;2022-10-17T05:31:28;17.70;99.90
70074;DHT22;57445;51.058;3.698;2022-10-17T05:33:59;17.80;99.90
70074;DHT22;57445;51.058;3.698;2022-10-17T05:36:31;18.00;99.90
70074;DHT22;57445;51.058;3.698;2022-10-17T05:39:04;18.20;99.60
70074;DHT22;57445;51.058;3.698;2022-10-17T05:41:37;18.40;99.30
70074;DHT22;57445;51.058;3.698;2022-10-17T05:44:09;18.60;99.10
70074;DHT22;57445;51.058;3.698;2022-10-17T05:46:37;18.70;98.90
70074;DHT22;57445;51.058;3.698;2022-10-17T05:49:04;18.70;99.00
70074;DHT22;57445;51.058;3.698;2022-10-17T05:51:32;18.50;99.00
70074;DHT22;57445;51.058;3.698;2022-10-17T05:54:00;18.60;99.10
70074;DHT22;57445;51.058;3.698;2022-10-17T05:56:32;18.30;99.30
70074;DHT22;57445;51.058;3.698;2022-10-17T05:59:01;18.30;99.60
70074;DHT22;57445;51.058;3.698;2022-10-17T06:01:34;18.30;99.60
70074;DHT22;57445;51.058;3.698;2022-10-17T06:04:06;18.10;99.80
70074;DHT22;57445;51.058;3.698;2022-10-17T06:06:35;18.00;99.90
70074;DHT22;57445;51.058;3.698;2022-10-17T06:09:07;17.70;99.90
70074;DHT22;57445;51.058;3.698;2022-10-17T06:11:40;17.50;99.90
70074;DHT22;57445;51.058;3.698;2022-10-17T06:14:13;17.50;99.90
70074;DHT22;57445;51.058;3.698;2022-10-17T06:16:45;17.60;99.90
70074;DHT22;57445;51.058;3.698;2022-10-17T06:19:18;17.70;99.90
70074;DHT22;57445;51.058;3.698;2022-10-17T06:21:45;17.70;99.90
70074;DHT22;57445;51.058;3.698;2022-10-17T06:24:13;17.80;99.90
70074;DHT22;57445;51.058;3.698;2022-10-17T06:26:41;17.70;99.90
70074;DHT22;57445;51.058;3.698;2022-10-17T06:29:09;17.70;99.90
70074;DHT22;57445;51.058;3.698;2022-10-17T06:31:38;17.80;99.90
70074;DHT22;57445;51.058;3.698;2022-10-17T06:34:06;18.00;99.90
70074;DHT22;57445;51.058;3.698;2022-10-17T06:36:35;18.30;99.90
70074;DHT22;57445;51.058;3.698;2022-10-17T06:39:03;18.40;99.90
70074;DHT22;57445;51.058;3.698;2022-10-17T06:41:31;18.30;99.90
70074;DHT22;57445;51.058;3.698;2022-10-17T06:43:59;18.50;99.90
70074;DHT22;57445;51.058;3.698;2022-10-17T06:46:28;18.50;99.90
70074;DHT22;57445;51.058;3.698;2022-10-17T06:48:57;18.70;99.90
70074;DHT22;57445;51.058;3.698;2022-10-17T06:51:25;18.70;99.90
70074;DHT22;57445;51.058;3.698;2022-10-17T06:53:53;18.30;99.90
70074;DHT22;57445;51.058;3.698;2022-10-17T06:56:20;18.20;99.90
70074;DHT22;57445;51.058;3.698;2022-10-17T06:58:48;18.00;99.90
70074;DHT22;57445;51.058;3.698;2022-10-17T07:01:18;17.80;99.90
70074;DHT22;57445;51.058;3.698;2022-10-17T07:03:47;17.70;99.90
70074;DHT22;57445;51.058;3.698;2022-10-17T07:06:17;18.00;99.90
70074;DHT22;57445;51.058;3.698;2022-10-17T07:08:45;17.90;99.90
70074;DHT22;57445;51.058;3.698;2022-10-17T07:11:14;17.80;99.90
70074;DHT22;57445;51.058;3.698;2022-10-17T07:13:42;17.80;99.90
70074;DHT22;57445;51.058;3.698;2022-10-17T07:16:10;18.00;99.90
70074;DHT22;57445;51.058;3.698;2022-10-17T07:18:39;17.90;99.90
70074;DHT22;57445;51.058;3.698;2022-10-17T07:21:07;18.20;99.90
70074;DHT22;57445;51.058;3.698;2022-10-17T07:23:37;18.30;99.90
70074;DHT22;57445;51.058;3.698;2022-10-17T07:26:06;18.50;99.90
70074;DHT22;57445;51.058;3.698;2022-10-17T07:28:35;18.60;99.90
70074;DHT22;57445;51.058;3.698;2022-10-17T07:31:09;18.70;99.90
70074;DHT22;57445;51.058;3.698;2022-10-17T07:33:38;18.60;99.90
70074;DHT22;57445;51.058;3.698;2022-10-17T07:36:05;18.70;99.90
70074;DHT22;57445;51.058;3.698;2022-10-17T07:38:34;18.80;99.90
70074;DHT22;57445;51.058;3.698;2022-10-17T07:41:06;18.80;99.90
70074;DHT22;57445;51.058;3.698;2022-10-17T07:43:34;18.80;99.90
70074;DHT22;57445;51.058;3.698;2022-10-17T07:46:03;18.70;99.90
70074;DHT22;57445;51.058;3.698;2022-10-17T07:48:31;18.80;99.90
70074;DHT22;57445;51.058;3.698;2022-10-17T07:51:01;19.10;99.60
70074;DHT22;57445;51.058;3.698;2022-10-17T07:53:30;19.00;99.60
70074;DHT22;57445;51.058;3.698;2022-10-17T07:56:04;19.00;99.40
70074;DHT22;57445;51.058;3.698;2022-10-17T07:58:33;19.30;98.80
70074;DHT22;57445;51.058;3.698;2022-10-17T08:01:03;19.10;99.10
70074;DHT22;57445;51.058;3.698;2022-10-17T08:03:31;19.00;99.50
70074;DHT22;57445;51.058;3.698;2022-10-17T08:06:00;19.10;99.30
70074;DHT22;57445;51.058;3.698;2022-10-17T08:08:29;18.90;99.50
70074;DHT22;57445;51.058;3.698;2022-10-17T08:11:01;19.00;99.30
70074;DHT22;57445;51.058;3.698;2022-10-17T08:13:30;19.10;99.00
70074;DHT22;57445;51.058;3.698;2022-10-17T08:16:05;19.20;98.80
70074;DHT22;57445;51.058;3.698;2022-10-17T08:18:34;19.00;99.10
70074;DHT22;57445;51.058;3.698;2022-10-17T08:21:07;19.00;99.20
70074;DHT22;57445;51.058;3.698;2022-10-17T08:23:40;19.00;99.50
70074;DHT22;57445;51.058;3.698;2022-10-17T08:26:13;19.30;99.00
70074;DHT22;57445;51.058;3.698;2022-10-17T08:28:43;19.60;98.60
70074;DHT22;57445;51.058;3.698;2022-10-17T08:31:13;19.40;98.80
70074;DHT22;57445;51.058;3.698;2022-10-17T08:33:46;19.30;98.80
70074;DHT22;57445;51.058;3.698;2022-10-17T08:36:16;19.00;99.30
70074;DHT22;57445;51.058;3.698;2022-10-17T08:38:45;18.90;99.50
70074;DHT22;57445;51.058;3.698;2022-10-17T08:41:21;18.60;99.90
70074;DHT22;57445;51.058;3.698;2022-10-17T08:44:04;18.50;99.90
70074;DHT22;57445;51.058;3.698;2022-10-17T08:46:40;18.40;99.90
70074;DHT22;57445;51.058;3.698;2022-10-17T08:49:20;18.40;99.90
70074;DHT22;57445;51.058;3.698;2022-10-17T08:51:55;18.40;99.90
70074;DHT22;57445;51.058;3.698;2022-10-17T08:54:32;18.40;99.90
70074;DHT22;57445;51.058;3.698;2022-10-17T08:57:01;18.40;99.90
70074;DHT22;57445;51.058;3.698;2022-10-17T08:59:30;18.70;99.90
70074;DHT22;57445;51.058;3.698;2022-10-17T09:02:02;18.90;99.80
70074;DHT22;57445;51.058;3.698;2022-10-17T09:04:49;18.70;99.80
70074;DHT22;57445;51.058;3.698;2022-10-17T09:07:28;18.60;99.90
70074;DHT22;57445;51.058;3.698;2022-10-17T09:10:13;19.10;99.50
70074;DHT22;57445;51.058;3.698;2022-10-17T09:12:46;18.90;99.70
70074;DHT22;57445;51.058;3.698;2022-10-17T09:15:39;18.90;99.80
70074;DHT22;57445;51.058;3.698;2022-10-17T09:18:14;19.00;99.80
70074;DHT22;57445;51.058;3.698;2022-10-17T09:20:48;19.40;98.90
70074;DHT22;57445;51.058;3.698;2022-10-17T09:23:20;19.70;98.10
70074;DHT22;57445;51.058;3.698;2022-10-17T09:25:57;19.50;98.40
70074;DHT22;57445;51.058;3.698;2022-10-17T09:28:32;19.80;97.90
70074;DHT22;57445;51.058;3.698;2022-10-17T09:31:11;19.60;98.30
70074;DHT22;57445;51.058;3.698;2022-10-17T09:33:47;19.20;99.20
70074;DHT22;57445;51.058;3.698;2022-10-17T09:36:17;19.60;98.60
70074;DHT22;57445;51.058;3.698;2022-10-17T09:38:48;20.00;97.50
70074;DHT22;57445;51.058;3.698;2022-10-17T09:41:19;20.00;97.70
70074;DHT22;57445;51.058;3.698;2022-10-17T09:43:55;19.90;97.80
70074;DHT22;57445;51.058;3.698;2022-10-17T09:46:28;19.80;98.10
70074;DHT22;57445;51.058;3.698;2022-10-17T09:49:02;20.10;97.40
70074;DHT22;57445;51.058;3.698;2022-10-17T09:51:31;20.30;97.00
70074;DHT22;57445;51.058;3.698;2022-10-17T09:54:02;20.30;97.00
70074;DHT22;57445;51.058;3.698;2022-10-17T09:56:56;20.00;97.70
70074;DHT22;57445;51.058;3.698;2022-10-17T09:59:32;20.00;97.70
70074;DHT22;57445;51.058;3.698;2022-10-17T10:02:17;20.40;96.70
70074;DHT22;57445;51.058;3.698;2022-10-17T10:05:14;20.50;96.40
70074;DHT22;57445;51.058;3.698;2022-10-17T10:08:01;20.20;96.80
70074;DHT22;57445;51.058;3.698;2022-10-17T10:10:31;19.70;97.90
70074;DHT22;57445;51.058;3.698;2022-10-17T10:13:04;19.80;97.60
70074;DHT22;57445;51.058;3.698;2022-10-17T10:15:36;19.70;97.80
70074;DHT22;57445;51.058;3.698;2022-10-17T10:18:32;19.40;98.50
70074;DHT22;57445;51.058;3.698;2022-10-17T10:21:07;19.60;98.00
70074;DHT22;57445;51.058;3.698;2022-10-17T10:23:35;19.70;98.10
70074;DHT22;57445;51.058;3.698;2022-10-17T10:26:20;20.00;98.00
70074;DHT22;57445;51.058;3.698;2022-10-17T10:28:54;20.60;96.40
70074;DHT22;57445;51.058;3.698;2022-10-17T10:31:34;21.20;95.90
70074;DHT22;57445;51.058;3.698;2022-10-17T10:34:16;21.10;95.90
70074;DHT22;57445;51.058;3.698;2022-10-17T10:36:52;21.60;94.70
70074;DHT22;57445;51.058;3.698;2022-10-17T10:39:32;21.80;94.40
70074;DHT22;57445;51.058;3.698;2022-10-17T10:42:01;21.90;94.80
70074;DHT22;57445;51.058;3.698;2022-10-17T10:44:31;21.90;94.60
70074;DHT22;57445;51.058;3.698;2022-10-17T10:47:08;22.10;94.10
70074;DHT22;57445;51.058;3.698;2022-10-17T10:49:42;22.30;93.60
70074;DHT22;57445;51.058;3.698;2022-10-17T10:52:17;22.70;93.00
70074;DHT22;57445;51.058;3.698;2022-10-17T10:54:53;22.80;93.10
70074;DHT22;57445;51.058;3.698;2022-10-17T10:57:24;22.80;93.20
70074;DHT22;57445;51.058;3.698;2022-10-17T11:00:03;22.80;92.90
70074;DHT22;57445;51.058;3.698;2022-10-17T11:02:35;22.70;92.90
70074;DHT22;57445;51.058;3.698;2022-10-17T11:05:13;22.90;92.70
70074;DHT22;57445;51.058;3.698;2022-10-17T11:07:48;23.20;92.20
70074;DHT22;57445;51.058;3.698;2022-10-17T11:10:22;23.40;91.40
70074;DHT22;57445;51.058;3.698;2022-10-17T11:12:55;23.20;91.90
70074;DHT22;57445;51.058;3.698;2022-10-17T11:15:28;23.10;91.90
70074;DHT22;57445;51.058;3.698;2022-10-17T11:18:00;23.20;91.70
70074;DHT22;57445;51.058;3.698;2022-10-17T11:20:43;22.90;92.10
70074;DHT22;57445;51.058;3.698;2022-10-17T11:23:16;22.40;92.40
70074;DHT22;57445;51.058;3.698;2022-10-17T11:25:49;22.60;92.40
70074;DHT22;57445;51.058;3.698;2022-10-17T11:28:19;22.80;92.20
70074;DHT22;57445;51.058;3.698;2022-10-17T11:30:50;22.90;92.10
70074;DHT22;57445;51.058;3.698;2022-10-17T11:33:28;22.40;92.80
70074;DHT22;57445;51.058;3.698;2022-10-17T11:36:03;21.60;93.70
70074;DHT22;57445;51.058;3.698;2022-10-17T11:38:40;21.10;94.70
70074;DHT22;57445;51.058;3.698;2022-10-17T11:41:13;21.00;94.80
70074;DHT22;57445;51.058;3.698;2022-10-17T11:43:47;20.70;95.20
70074;DHT22;57445;51.058;3.698;2022-10-17T11:46:20;20.60;95.70
70074;DHT22;57445;51.058;3.698;2022-10-17T11:49:05;20.30;95.90
70074;DHT22;57445;51.058;3.698;2022-10-17T11:51:42;20.30;96.40
70074;DHT22;57445;51.058;3.698;2022-10-17T11:54:12;20.50;95.90
70074;DHT22;57445;51.058;3.698;2022-10-17T11:56:47;20.40;96.10
70074;DHT22;57445;51.058;3.698;2022-10-17T11:59:43;20.50;95.90
70074;DHT22;57445;51.058;3.698;2022-10-17T12:02:19;20.50;95.60
70074;DHT22;57445;51.058;3.698;2022-10-17T12:04:57;20.70;95.50
70074;DHT22;57445;51.058;3.698;2022-10-17T12:07:35;20.60;95.40
70074;DHT22;57445;51.058;3.698;2022-10-17T12:10:18;20.30;95.90
70074;DHT22;57445;51.058;3.698;2022-10-17T12:12:48;20.30;96.30
70074;DHT22;57445;51.058;3.698;2022-10-17T12:15:29;20.50;96.10
70074;DHT22;57445;51.058;3.698;2022-10-17T12:18:02;20.80;95.60
70074;DHT22;57445;51.058;3.698;2022-10-17T12:20:33;21.00;95.20
70074;DHT22;57445;51.058;3.698;2022-10-17T12:23:19;21.40;94.40
70074;DHT22;57445;51.058;3.698;2022-10-17T12:25:50;21.40;94.30
70074;DHT22;57445;51.058;3.698;2022-10-17T12:28:26;21.10;94.30
70074;DHT22;57445;51.058;3.698;2022-10-17T12:30:58;21.20;94.40
70074;DHT22;57445;51.058;3.698;2022-10-17T12:33:31;20.80;94.70
70074;DHT22;57445;51.058;3.698;2022-10-17T12:39:46;20.60;95.50
70074;DHT22;57445;51.058;3.698;2022-10-17T12:42:44;20.80;94.80
70074;DHT22;57445;51.058;3.698;2022-10-17T12:45:47;20.60;95.00
70074;DHT22;57445;51.058;3.698;2022-10-17T12:52:05;20.50;95.00
70074;DHT22;57445;51.058;3.698;2022-10-17T12:54:38;20.70;95.10
70074;DHT22;57445;51.058;3.698;2022-10-17T12:57:18;20.90;94.60
70074;DHT22;57445;51.058;3.698;2022-10-17T12:59:46;21.40;93.40
70074;DHT22;57445;51.058;3.698;2022-10-17T13:02:19;22.00;92.10
70074;DHT22;57445;51.058;3.698;2022-10-17T13:04:48;21.30;92.60
70074;DHT22;57445;51.058;3.698;2022-10-17T13:07:19;20.90;93.30
70074;DHT22;57445;51.058;3.698;2022-10-17T13:09:49;21.10;93.50
70074;DHT22;57445;51.058;3.698;2022-10-17T13:12:21;21.10;93.40
70074;DHT22;57445;51.058;3.698;2022-10-17T13:14:54;21.10;93.10
70074;DHT22;57445;51.058;3.698;2022-10-17T13:17:25;21.20;93.10
70074;DHT22;57445;51.058;3.698;2022-10-17T13:19:59;21.40;92.70
70074;DHT22;57445;51.058;3.698;2022-10-17T13:22:28;21.70;92.30
70074;DHT22;57445;51.058;3.698;2022-10-17T13:25:06;21.60;92.00
70074;DHT22;57445;51.058;3.698;2022-10-17T13:27:36;21.50;92.30
70074;DHT22;57445;51.058;3.698;2022-10-17T13:30:23;21.20;92.70
70074;DHT22;57445;51.058;3.698;2022-10-17T13:32:51;21.40;92.80
70074;DHT22;57445;51.058;3.698;2022-10-17T13:35:24;21.90;92.00
70074;DHT22;57445;51.058;3.698;2022-10-17T13:37:58;21.90;91.60
70074;DHT22;57445;51.058;3.698;2022-10-17T13:40:38;21.70;91.80
70074;DHT22;57445;51.058;3.698;2022-10-17T13:43:15;21.70;91.80
70074;DHT22;57445;51.058;3.698;2022-10-17T13:45:49;21.70;92.20
70074;DHT22;57445;51.058;3.698;2022-10-17T13:48:24;22.10;91.40
70074;DHT22;57445;51.058;3.698;2022-10-17T13:50:55;22.30;90.80
70074;DHT22;57445;51.058;3.698;2022-10-17T13:53:29;22.10;91.10
70074;DHT22;57445;51.058;3.698;2022-10-17T13:56:04;22.30;91.00
70074;DHT22;57445;51.058;3.698;2022-10-17T13:58:39;22.00;91.00
70074;DHT22;57445;51.058;3.698;2022-10-17T14:01:08;21.80;91.80
70074;DHT22;57445;51.058;3.698;2022-10-17T14:03:41;22.10;91.50
70074;DHT22;57445;51.058;3.698;2022-10-17T14:06:16;21.80;91.40
70074;DHT22;57445;51.058;3.698;2022-10-17T14:08:53;21.40;92.60
70074;DHT22;57445;51.058;3.698;2022-10-17T14:11:25;21.40;92.40
70074;DHT22;57445;51.058;3.698;2022-10-17T14:14:00;21.50;92.10
70074;DHT22;57445;51.058;3.698;2022-10-17T14:16:34;21.60;92.20
70074;DHT22;57445;51.058;3.698;2022-10-17T14:19:22;22.00;91.50
70074;DHT22;57445;51.058;3.698;2022-10-17T14:21:58;21.70;91.60
70074;DHT22;57445;51.058;3.698;2022-10-17T14:24:45;21.80;91.90
70074;DHT22;57445;51.058;3.698;2022-10-17T14:27:28;21.90;91.90
70074;DHT22;57445;51.058;3.698;2022-10-17T14:30:04;22.20;91.30
70074;DHT22;57445;51.058;3.698;2022-10-17T14:32:35;22.20;91.40
70074;DHT22;57445;51.058;3.698;2022-10-17T14:35:16;22.40;91.10
70074;DHT22;57445;51.058;3.698;2022-10-17T14:37:49;22.40;90.80
70074;DHT22;57445;51.058;3.698;2022-10-17T14:40:19;22.20;91.00
70074;DHT22;57445;51.058;3.698;2022-10-17T14:42:54;21.90;91.60
70074;DHT22;57445;51.058;3.698;2022-10-17T14:45:32;21.40;91.90
70074;DHT22;57445;51.058;3.698;2022-10-17T14:48:02;21.10;92.60
70074;DHT22;57445;51.058;3.698;2022-10-17T14:50:35;20.90;92.80
70074;DHT22;57445;51.058;3.698;2022-10-17T14:53:05;20.90;92.90
70074;DHT22;57445;51.058;3.698;2022-10-17T14:55:34;21.00;92.90
70074;DHT22;57445;51.058;3.698;2022-10-17T14:58:17;21.10;92.80
70074;DHT22;57445;51.058;3.698;2022-10-17T15:00:53;21.30;92.80
70074;DHT22;57445;51.058;3.698;2022-10-17T15:03:25;21.30;92.70
70074;DHT22;57445;51.058;3.698;2022-10-17T15:05:55;21.60;92.00
70074;DHT22;57445;51.058;3.698;2022-10-17T15:08:28;22.00;91.60
70074;DHT22;57445;51.058;3.698;2022-10-17T15:10:55;21.90;91.50
70074;DHT22;57445;51.058;3.698;2022-10-17T15:13:23;21.40;92.10
70074;DHT22;57445;51.058;3.698;2022-10-17T15:15:56;21.30;92.50
70074;DHT22;57445;51.058;3.698;2022-10-17T15:18:29;21.00;93.00
70074;DHT22;57445;51.058;3.698;2022-10-17T15:20:59;20.90;93.30
70074;DHT22;57445;51.058;3.698;2022-10-17T15:23:31;21.00;93.10
70074;DHT22;57445;51.058;3.698;2022-10-17T15:26:00;21.40;92.70
70074;DHT22;57445;51.058;3.698;2022-10-17T15:28:32;21.30;92.70
70074;DHT22;57445;51.058;3.698;2022-10-17T15:31:07;21.30;92.80
70074;DHT22;57445;51.058;3.698;2022-10-17T15:33:40;21.30;93.00
70074;DHT22;57445;51.058;3.698;2022-10-17T15:36:19;21.10;93.10
70074;DHT22;57445;51.058;3.698;2022-10-17T15:38:53;21.10;93.20
70074;DHT22;57445;51.058;3.698;2022-10-17T15:41:27;21.20;93.20
70074;DHT22;57445;51.058;3.698;2022-10-17T15:43:55;21.30;93.00
70074;DHT22;57445;51.058;3.698;2022-10-17T15:46:26;21.60;92.70
70074;DHT22;57445;51.058;3.698;2022-10-17T15:48:55;21.60;92.50
70074;DHT22;57445;51.058;3.698;2022-10-17T15:51:23;21.60;92.40
70074;DHT22;57445;51.058;3.698;2022-10-17T15:53:50;21.60;92.60
70074;DHT22;57445;51.058;3.698;2022-10-17T15:56:20;21.50;92.60
70074;DHT22;57445;51.058;3.698;2022-10-17T15:58:53;21.50;93.10
70074;DHT22;57445;51.058;3.698;2022-10-17T16:01:29;21.40;92.90
70074;DHT22;57445;51.058;3.698;2022-10-17T16:04:01;21.40;93.00
70074;DHT22;57445;51.058;3.698;2022-10-17T16:06:29;21.20;93.20
70074;DHT22;57445;51.058;3.698;2022-10-17T16:09:01;21.10;93.70
70074;DHT22;57445;51.058;3.698;2022-10-17T16:11:35;21.00;93.60
70074;DHT22;57445;51.058;3.698;2022-10-17T16:14:05;20.90;93.70
70074;DHT22;57445;51.058;3.698;2022-10-17T16:16:34;20.90;93.80
70074;DHT22;57445;51.058;3.698;2022-10-17T16:19:03;20.70;94.20
70074;DHT22;57445;51.058;3.698;2022-10-17T16:21:32;20.60;94.30
70074;DHT22;57445;51.058;3.698;2022-10-17T16:24:01;20.80;94.00